Time;durP1;ratioP1;P1;durP2;ratioP2;P2;SDS_P1;SDS_P2;PMS_P1;PMS_P2;Temp;Humidity;BMP_temperature;BMP_pressure;BME280_temperature;BME280_humidity;BME280_pressure;Samples;Min_cycle;Max_cycle;Signal;HPM_P1;HPM_P2
2023/04/12 00:02:26;;;;;;;9.32;3.80;;;;;;;14.90;58.58;98306.94;5093335;28;20032;-47
2023/04/12 00:04:54;;;;;;;16.38;4.35;;;;;;;15.10;58.43;98298.53;5092269;28;20073;-46
2023/04/12 00:07:24;;;;;;;10.05;4.90;;;;;;;15.17;59.41;98287.81;5093209;28;20023;-47
2023/04/12 00:09:50;;;;;;;10.27;4.25;;;;;;;15.23;59.93;98276.31;5093178;28;20028;-46
2023/04/12 00:12:18;;;;;;;14.50;4.80;;;;;;;15.24;58.46;98277.09;5093110;28;20024;-46
2023/04/12 00:14:44;;;;;;;7.70;4.38;;;;;;;15.24;58.50;98274.44;5108821;28;20024;-47
2023/04/12 00:17:11;;;;;;;11.57;3.75;;;;;;;15.09;57.55;98267.88;5092917;28;20054;-47
2023/04/12 00:19:40;;;;;;;5.68;3.55;;;;;;;15.03;57.92;98266.22;5091700;28;20051;-47
2023/04/12 00:22:07;;;;;;;7.38;3.30;;;;;;;15.09;57.37;98272.34;5091747;28;20044;-47
2023/04/12 00:24:33;;;;;;;7.47;3.25;;;;;;;15.11;56.72;98275.56;5092887;28;20031;-47
2023/04/12 00:27:00;;;;;;;11.73;3.80;;;;;;;15.04;57.00;98267.78;5092865;28;20061;-47
2023/04/12 00:29:27;;;;;;;9.13;3.30;;;;;;;15.02;56.87;98267.22;5092538;28;20052;-47
2023/04/12 00:31:52;;;;;;;42.92;6.95;;;;;;;15.08;57.26;98246.97;5108437;28;20028;-47
2023/04/12 00:34:18;;;;;;;104.55;10.82;;;;;;;15.14;56.72;98253.94;5107681;28;20073;-47
2023/04/12 00:36:44;;;;;;;55.33;7.38;;;;;;;15.22;56.70;98252.75;5092558;28;20493;-47
2023/04/12 00:39:09;;;;;;;31.70;5.20;;;;;;;15.32;56.26;98245.75;5092706;28;20023;-47
2023/04/12 00:41:36;;;;;;;19.05;4.35;;;;;;;15.41;56.15;98240.84;5092527;28;20058;-47
2023/04/12 00:44:02;;;;;;;11.77;4.22;;;;;;;15.47;55.74;98229.31;5092559;28;20128;-47
2023/04/12 00:46:28;;;;;;;13.60;4.28;;;;;;;15.43;55.93;98230.03;5092521;28;20103;-47
2023/04/12 00:48:55;;;;;;;15.27;4.32;;;;;;;15.53;56.91;98217.78;5092507;28;20501;-47
2023/04/12 00:51:24;;;;;;;12.85;4.85;;;;;;;15.63;58.63;98213.66;5092458;28;20019;-47
2023/04/12 00:53:52;;;;;;;12.10;4.90;;;;;;;15.34;56.44;98211.94;5092399;28;20050;-47
2023/04/12 00:56:22;;;;;;;10.05;4.30;;;;;;;15.01;55.83;98211.97;5107946;28;20042;-47
2023/04/12 00:58:48;;;;;;;11.32;5.88;;;;;;;14.67;56.26;98212.75;5092299;28;20032;-47
2023/04/12 01:01:15;;;;;;;14.95;8.30;;;;;;;14.41;56.92;98203.56;5092405;28;20027;-46
2023/04/12 01:03:42;;;;;;;11.40;5.60;;;;;;;14.31;57.33;98196.25;5092324;28;20512;-47
2023/04/12 01:06:25;;;;;;;9.55;3.85;;;;;;;14.34;58.21;98198.41;5091039;28;20024;-46
2023/04/12 01:09:10;;;;;;;9.23;4.20;;;;;;;14.51;58.32;98201.09;5092492;28;20397;-47
2023/04/12 01:11:55;;;;;;;16.10;4.22;;;;;;;14.62;57.63;98182.81;5092543;28;20051;-47
2023/04/12 01:14:29;;;;;;;6.18;3.53;;;;;;;14.61;56.39;98182.03;5090947;28;20169;-47
2023/04/12 01:16:59;;;;;;;13.05;3.40;;;;;;;14.64;57.01;98176.25;5092013;28;20089;-46
2023/04/12 01:19:32;;;;;;;9.02;3.80;;;;;;;14.81;56.52;98168.34;5090814;28;20507;-47
2023/04/12 01:22:22;;;;;;;8.18;2.88;;;;;;;14.91;56.25;98159.75;5107725;28;20042;-47
2023/04/12 01:25:01;;;;;;;8.93;3.08;;;;;;;14.81;55.07;98155.16;5092078;28;20370;-46
2023/04/12 01:27:32;;;;;;;10.65;3.40;;;;;;;14.61;55.56;98149.50;5091997;28;20024;-47
2023/04/12 01:30:02;;;;;;;10.43;2.63;;;;;;;14.43;55.42;98145.22;5091874;28;20434;-47
2023/04/12 01:32:29;;;;;;;13.23;3.15;;;;;;;14.38;55.81;98135.38;5090601;28;20031;-47
2023/04/12 01:34:57;;;;;;;8.93;2.10;;;;;;;14.39;56.01;98131.72;5107654;28;20028;-46
2023/04/12 01:37:24;;;;;;;6.45;2.70;;;;;;;14.34;56.33;98119.22;5091801;28;20028;-47
2023/04/12 01:39:49;;;;;;;11.93;3.17;;;;;;;14.27;56.75;98112.50;5091825;28;20511;-46
2023/04/12 01:42:22;;;;;;;10.15;2.75;;;;;;;14.32;56.13;98112.59;5091798;28;20093;-46
2023/04/12 01:44:49;;;;;;;9.95;2.80;;;;;;;14.29;56.48;98108.59;5093810;28;20036;-46
2023/04/12 01:47:15;;;;;;;9.70;3.00;;;;;;;14.42;56.65;98098.75;5111637;28;20024;-46
2023/04/12 01:50:01;;;;;;;7.45;2.58;;;;;;;14.56;55.75;98098.22;5111669;28;20113;-47
2023/04/12 01:52:30;;;;;;;;;;;;;;;14.68;56.33;98071.72;5094588;28;20056;-46
2023/04/12 01:55:00;;;;;;;10.40;3.10;;;;;;;14.68;55.88;98063.81;5095799;28;19953;-47
2023/04/12 01:57:26;;;;;;;11.18;3.00;;;;;;;14.71;56.25;98065.19;5095743;28;20026;-46
2023/04/12 01:59:54;;;;;;;6.43;2.55;;;;;;;14.77;55.55;98054.44;5095737;28;20020;-47
2023/04/12 02:02:20;;;;;;;7.57;3.28;;;;;;;14.69;55.86;98048.75;5111326;28;20024;-46
2023/04/12 02:04:47;;;;;;;10.75;3.83;;;;;;;14.74;56.48;98040.91;5095679;28;20378;-47
2023/04/12 02:07:14;;;;;;;9.80;2.80;;;;;;;14.88;55.08;98033.44;5111287;28;20031;-46
2023/04/12 02:09:40;;;;;;;8.88;3.00;;;;;;;14.88;55.22;98028.94;5111281;28;20020;-46
2023/04/12 02:12:06;;;;;;;5.43;2.47;;;;;;;14.84;54.72;98029.69;5095542;28;20439;-46
2023/04/12 02:14:32;;;;;;;12.38;2.95;;;;;;;14.73;54.77;98028.75;5111173;28;20039;-47
2023/04/12 02:16:58;;;;;;;5.35;2.60;;;;;;;14.70;54.95;98030.03;5110967;28;20032;-47
2023/04/12 02:19:24;;;;;;;7.03;2.60;;;;;;;14.72;54.83;98035.88;5111088;28;20073;-47
2023/04/12 02:21:50;;;;;;;9.10;2.50;;;;;;;14.79;54.61;98038.34;5111021;28;20402;-47
2023/04/12 02:24:16;;;;;;;6.50;2.42;;;;;;;14.80;54.00;98037.28;5095220;28;20091;-46
2023/04/12 02:26:41;;;;;;;8.45;2.53;;;;;;;14.82;54.17;98037.84;5095506;28;20028;-47
2023/04/12 02:29:09;;;;;;;7.22;2.28;;;;;;;14.85;54.06;98041.84;5094986;28;20529;-46
2023/04/12 02:31:37;;;;;;;6.97;2.20;;;;;;;14.87;53.85;98048.50;5110847;28;20028;-46
2023/04/12 02:34:03;;;;;;;11.25;2.60;;;;;;;14.87;53.83;98059.06;5095088;28;20046;-47
2023/04/12 02:36:29;;;;;;;5.90;2.75;;;;;;;14.82;53.92;98056.34;5094935;28;20024;-47
2023/04/12 02:38:55;;;;;;;5.07;2.08;;;;;;;14.80;54.14;98047.88;5110720;28;20437;-46
2023/04/12 02:41:22;;;;;;;7.28;2.28;;;;;;;14.68;54.39;98055.09;5094914;28;20524;-46
2023/04/12 02:43:48;;;;;;;7.22;2.45;;;;;;;14.48;54.60;98040.50;5094881;28;20137;-46
2023/04/12 02:46:18;;;;;;;6.10;2.80;;;;;;;14.31;55.14;98039.72;5093510;28;20561;-46
2023/04/12 02:48:44;;;;;;;8.85;2.88;;;;;;;14.25;55.90;98046.75;5110588;28;20016;-46
2023/04/12 02:51:10;;;;;;;6.95;2.85;;;;;;;14.15;55.99;98036.06;5094659;28;20149;-46
2023/04/12 02:53:36;;;;;;;14.45;3.20;;;;;;;14.11;56.39;98035.72;5093515;28;20046;-46
2023/04/12 02:56:05;;;;;;;6.05;2.05;;;;;;;14.12;55.81;98028.59;5093785;28;20028;-46
2023/04/12 02:58:34;;;;;;;4.75;2.40;;;;;;;14.16;55.61;98017.31;5094657;28;20024;-46
2023/04/12 03:01:00;;;;;;;7.90;2.45;;;;;;;14.11;56.13;98011.97;5094615;28;20031;-46
2023/04/12 03:03:27;;;;;;;11.23;3.05;;;;;;;14.07;56.39;98005.56;5094547;28;20024;-46
2023/04/12 03:05:53;;;;;;;12.98;2.70;;;;;;;14.07;56.42;97989.75;5094397;28;20024;-46
2023/04/12 03:08:20;;;;;;;10.82;3.13;;;;;;;14.06;56.83;97988.13;5110163;28;20522;-46
2023/04/12 03:10:46;;;;;;;8.65;2.95;;;;;;;14.21;56.72;97992.06;5094615;28;20401;-46
2023/04/12 03:13:12;;;;;;;9.10;2.70;;;;;;;14.38;56.56;98012.09;5093003;28;20042;-46
2023/04/12 03:15:38;;;;;;;5.43;2.63;;;;;;;14.47;56.27;98024.94;5109975;28;20456;-47
2023/04/12 03:18:04;;;;;;;6.70;2.63;;;;;;;14.55;56.03;98030.59;5094220;28;20024;-46
2023/04/12 03:20:30;;;;;;;10.35;2.95;;;;;;;14.75;55.70;98019.53;5109818;28;20024;-46
2023/04/12 03:22:55;;;;;;;6.97;2.60;;;;;;;15.03;55.11;98014.34;5109865;28;20048;-46
2023/04/12 03:25:21;;;;;;;8.13;2.60;;;;;;;15.11;54.43;98013.91;5094036;28;20031;-47
2023/04/12 03:27:47;;;;;;;8.57;2.20;;;;;;;14.91;53.90;98007.34;5093997;28;20233;-46
2023/04/12 03:30:13;;;;;;;6.68;3.33;;;;;;;14.75;54.21;98016.13;5093882;28;20052;-46
2023/04/12 03:32:40;;;;;;;5.22;2.50;;;;;;;14.42;55.06;98022.19;5093966;28;20107;-47
2023/04/12 03:35:07;;;;;;;7.50;3.20;;;;;;;14.21;55.63;98018.47;5093796;28;20028;-46
2023/04/12 03:37:34;;;;;;;9.73;3.30;;;;;;;14.14;56.08;98011.47;5093860;28;20024;-46
2023/04/12 03:40:00;;;;;;;15.93;3.80;;;;;;;14.11;56.72;98024.38;5093780;28;20512;-46
2023/04/12 03:42:27;;;;;;;8.23;2.70;;;;;;;14.15;56.66;98014.94;5092622;28;20028;-46
2023/04/12 03:44:53;;;;;;;10.48;3.17;;;;;;;14.13;56.22;98031.00;5092414;28;20032;-46
2023/04/12 03:47:20;;;;;;;6.03;2.50;;;;;;;14.01;56.70;98017.09;5093659;28;20024;-46
2023/04/12 03:49:48;;;;;;;6.80;2.50;;;;;;;13.87;56.92;98016.59;5092391;28;20028;-46
2023/04/12 03:52:14;;;;;;;7.57;2.45;;;;;;;13.70;57.31;98011.31;5109284;28;20118;-46
2023/04/12 03:54:40;;;;;;;6.80;2.58;;;;;;;13.74;57.82;97995.78;5093657;28;20028;-47
2023/04/12 03:57:06;;;;;;;9.10;3.35;;;;;;;13.71;57.49;97980.44;5109076;28;20440;-47
2023/04/12 03:59:31;;;;;;;7.07;2.50;;;;;;;13.54;58.06;97973.31;5093529;28;20031;-46
2023/04/12 04:01:58;;;;;;;9.73;2.50;;;;;;;13.44;58.17;97969.69;5093439;28;20086;-47
2023/04/12 04:04:24;;;;;;;4.65;2.67;;;;;;;13.38;58.84;97969.59;5093336;28;20504;-47
2023/04/12 04:06:51;;;;;;;7.50;2.58;;;;;;;13.42;58.83;97964.66;5108848;28;20024;-47
2023/04/12 04:09:17;;;;;;;9.10;3.83;;;;;;;13.47;58.86;97969.22;5092375;28;20458;-46
2023/04/12 04:11:42;;;;;;;12.32;3.40;;;;;;;13.49;58.81;97972.41;5091857;28;20122;-47
2023/04/12 04:14:08;;;;;;;13.98;4.25;;;;;;;13.64;58.76;97972.66;5093197;28;20066;-46
2023/04/12 04:16:34;;;;;;;9.02;2.80;;;;;;;13.83;58.79;97972.47;5093049;28;20024;-46
2023/04/12 04:19:00;;;;;;;6.15;2.80;;;;;;;13.90;57.85;97965.19;5093071;28;20016;-47
2023/04/12 04:21:25;;;;;;;14.00;3.13;;;;;;;13.95;57.79;97965.28;5093258;28;20020;-46
2023/04/12 04:23:51;;;;;;;13.93;3.15;;;;;;;14.18;57.76;97966.94;5092897;28;20107;-46
2023/04/12 04:26:17;;;;;;;7.70;2.83;;;;;;;14.27;57.10;97970.78;5092937;28;20054;-46
2023/04/12 04:28:44;;;;;;;11.25;3.45;;;;;;;14.19;57.23;97974.63;5092936;28;20048;-46
2023/04/12 04:31:11;;;;;;;13.32;2.97;;;;;;;14.19;57.29;97965.91;5108412;28;20035;-46
2023/04/12 04:33:37;;;;;;;12.98;3.75;;;;;;;14.25;57.13;97959.66;5092758;28;20028;-46
2023/04/12 04:36:06;;;;;;;10.20;3.03;;;;;;;14.18;57.40;97959.03;5092554;28;20023;-46
2023/04/12 04:38:32;;;;;;;5.50;2.92;;;;;;;14.15;57.41;97944.47;5092675;28;20078;-47
2023/04/12 04:41:01;;;;;;;15.35;3.13;;;;;;;14.13;57.00;97948.41;5108313;28;20452;-46
2023/04/12 04:43:30;;;;;;;9.18;3.40;;;;;;;14.05;57.36;97956.72;5108295;28;20032;-46
2023/04/12 04:45:57;;;;;;;14.80;2.60;;;;;;;14.03;57.51;97946.41;5092537;28;20528;-46
2023/04/12 04:48:23;;;;;;;18.95;3.03;;;;;;;14.04;57.73;97944.56;5092551;28;20024;-46
2023/04/12 04:50:50;;;;;;;23.10;3.53;;;;;;;13.96;57.41;97954.50;5091289;28;20016;-46
2023/04/12 04:53:18;;;;;;;19.30;3.55;;;;;;;13.97;57.66;97950.00;5092497;28;20020;-46
2023/04/12 04:55:43;;;;;;;18.38;3.30;;;;;;;14.03;57.72;97949.06;5092379;28;20032;-46
2023/04/12 04:58:09;;;;;;;9.52;2.83;;;;;;;13.97;57.78;97952.66;5108059;28;20020;-47
2023/04/12 05:00:35;;;;;;;15.70;3.13;;;;;;;13.98;57.66;97954.22;5092349;28;20489;-46
2023/04/12 05:03:04;;;;;;;12.10;3.15;;;;;;;14.08;58.04;97966.78;5092326;28;20050;-46
2023/04/12 05:05:30;;;;;;;15.90;3.45;;;;;;;14.19;57.41;97971.97;5107929;28;20112;-46
2023/04/12 05:07:56;;;;;;;23.17;3.65;;;;;;;14.18;57.58;97959.84;5092240;28;20469;-46
2023/04/12 05:10:22;;;;;;;24.83;3.10;;;;;;;14.21;57.71;97960.41;5092175;28;20111;-46
2023/04/12 05:12:48;;;;;;;14.95;2.88;;;;;;;14.19;57.38;97976.47;5092110;28;20099;-47
2023/04/12 05:15:14;;;;;;;11.93;3.60;;;;;;;14.12;56.96;97979.25;5107707;28;20024;-47
2023/04/12 05:17:39;;;;;;;10.50;2.78;;;;;;;14.10;57.37;97977.91;5107726;28;20035;-47
2023/04/12 05:20:07;;;;;;;13.15;2.83;;;;;;;14.04;57.36;97977.03;5091634;28;20107;-46
2023/04/12 05:22:36;;;;;;;14.18;2.88;;;;;;;14.00;57.45;97981.19;5091981;28;20095;-46
2023/04/12 05:25:02;;;;;;;17.73;3.15;;;;;;;13.92;57.43;97985.03;5092004;28;20024;-47
2023/04/12 05:27:29;;;;;;;11.05;3.00;;;;;;;13.85;57.62;97980.94;5107650;28;20024;-46
2023/04/12 05:29:58;;;;;;;18.58;2.92;;;;;;;13.90;58.02;97973.09;5091666;28;20044;-46
2023/04/12 05:32:25;;;;;;;11.57;2.38;;;;;;;13.92;57.66;97963.94;5091983;28;20055;-46
2023/04/12 05:34:51;;;;;;;8.48;3.00;;;;;;;13.81;57.74;97969.28;5091938;28;20023;-46
2023/04/12 05:37:17;;;;;;;13.00;2.95;;;;;;;13.72;57.92;97968.84;5091779;28;20064;-46
2023/04/12 05:39:43;;;;;;;63.50;26.80;;;;;;;13.55;58.57;97960.94;5107538;28;20062;-46
2023/04/12 05:42:08;;;;;;;25.02;7.00;;;;;;;13.50;59.26;97963.47;5091823;28;20028;-47
2023/04/12 05:44:37;;;;;;;14.60;3.80;;;;;;;13.48;59.26;97974.25;5090546;28;20086;-46
2023/04/12 05:47:03;;;;;;;10.52;3.58;;;;;;;13.42;59.22;97977.84;5091816;28;20016;-46
2023/04/12 05:49:32;;;;;;;9.15;2.92;;;;;;;13.48;59.44;97989.25;5107493;28;20032;-46
2023/04/12 05:51:58;;;;;;;14.00;3.67;;;;;;;13.53;59.54;97987.50;5091820;28;20023;-46
2023/04/12 05:54:24;;;;;;;26.73;5.35;;;;;;;13.57;59.81;97988.63;5090532;28;20034;-46
2023/04/12 05:56:53;;;;;;;22.65;4.15;;;;;;;13.73;59.82;97988.91;5091649;28;20024;-46
2023/04/12 05:59:19;;;;;;;4.72;2.60;;;;;;;13.84;59.32;97981.97;5107413;28;20028;-46
2023/04/12 06:01:45;;;;;;;15.80;3.88;;;;;;;13.99;58.84;97979.59;5091700;28;20486;-46
2023/04/12 06:04:11;;;;;;;15.45;3.50;;;;;;;14.20;58.71;97983.34;5091970;28;20024;-46
2023/04/12 06:06:37;;;;;;;20.02;3.55;;;;;;;14.26;58.27;97987.66;5091643;28;20085;-46
2023/04/12 06:09:03;;;;;;;28.92;5.47;;;;;;;14.29;58.38;97978.47;5090601;28;20482;-46
2023/04/12 06:11:32;;;;;;;25.20;4.05;;;;;;;14.42;57.98;97986.03;5091553;28;20028;-47
2023/04/12 06:13:59;;;;;;;17.80;3.78;;;;;;;14.38;57.68;97980.44;5091466;28;20032;-46
2023/04/12 06:16:25;;;;;;;12.52;3.92;;;;;;;14.37;57.34;97975.41;5107140;28;20109;-46
2023/04/12 06:18:51;;;;;;;16.50;4.18;;;;;;;14.45;56.58;97974.22;5091477;28;20028;-46
2023/04/12 06:21:17;;;;;;;22.05;3.78;;;;;;;14.56;56.90;97974.13;5091447;28;20028;-46
2023/04/12 06:23:43;;;;;;;21.20;4.80;;;;;;;14.62;56.43;97971.56;5091478;28;20027;-46
2023/04/12 06:26:09;;;;;;;61.47;8.85;;;;;;;14.66;56.18;97977.94;5091479;28;20020;-46
2023/04/12 06:28:35;;;;;;;22.90;4.80;;;;;;;14.51;56.34;97966.09;5091232;28;20160;-46
2023/04/12 06:31:00;;;;;;;11.25;3.38;;;;;;;14.44;56.45;97964.69;5091983;28;20032;-46
2023/04/12 06:33:26;;;;;;;13.13;5.20;;;;;;;14.63;55.77;97970.50;5095184;28;20490;-46
2023/04/12 06:35:52;;;;;;;22.85;5.07;;;;;;;14.85;55.15;97975.78;5110582;28;20024;-47
2023/04/12 06:38:18;;;;;;;28.50;6.20;;;;;;;14.89;54.13;97967.16;5110748;28;20036;-46
2023/04/12 06:40:44;;;;;;;13.13;3.92;;;;;;;15.10;52.87;97965.53;5110653;28;20042;-46
2023/04/12 06:43:10;;;;;;;25.75;5.43;;;;;;;15.35;50.97;97966.84;5094932;28;20375;-47
2023/04/12 06:45:35;;;;;;;143.23;23.50;;;;;;;15.45;52.11;97974.09;5110566;28;20032;-47
2023/04/12 06:48:01;;;;;;;20.35;4.10;;;;;;;15.52;51.05;97978.16;5094855;28;20024;-46
2023/04/12 06:50:27;;;;;;;40.72;6.68;;;;;;;15.54;51.26;97972.63;5094834;28;20055;-47
2023/04/12 06:52:52;;;;;;;17.52;4.55;;;;;;;15.49;51.19;97969.91;5093604;28;20028;-47
2023/04/12 06:55:18;;;;;;;31.48;5.82;;;;;;;15.54;51.24;97967.31;5094721;28;20111;-47
2023/04/12 06:57:45;;;;;;;41.83;7.65;;;;;;;15.61;51.63;97977.69;5094573;28;20038;-47
2023/04/12 07:00:11;;;;;;;26.67;6.13;;;;;;;15.72;52.21;97977.56;5094634;28;20024;-47
2023/04/12 07:02:37;;;;;;;44.50;8.38;;;;;;;15.82;51.52;97968.13;5110258;28;20111;-46
2023/04/12 07:05:04;;;;;;;45.83;8.10;;;;;;;15.87;51.39;97971.59;5094444;28;20023;-47
2023/04/12 07:07:30;;;;;;;38.22;5.57;;;;;;;15.86;51.56;97959.44;5094526;28;20020;-47
2023/04/12 07:09:55;;;;;;;29.42;5.57;;;;;;;15.84;51.88;97961.53;5094399;28;20032;-47
2023/04/12 07:12:21;;;;;;;23.15;4.63;;;;;;;15.73;51.80;97947.41;5094401;28;20146;-47
2023/04/12 07:14:47;;;;;;;24.60;5.78;;;;;;;15.76;51.71;97946.91;5110005;28;20028;-46
2023/04/12 07:17:13;;;;;;;17.25;4.40;;;;;;;15.74;51.57;97945.56;5110240;28;20447;-47
2023/04/12 07:19:40;;;;;;;19.50;3.50;;;;;;;15.66;51.33;97941.50;5076123;28;20047;-46
2023/04/12 07:22:06;;;;;;;33.38;5.40;;;;;;;15.84;51.65;97947.50;5076321;28;20056;-46
2023/04/12 07:24:32;;;;;;;8.35;2.97;;;;;;;16.04;50.34;97947.66;5094198;28;20055;-46
2023/04/12 07:26:58;;;;;;;11.65;2.97;;;;;;;16.17;48.59;97951.72;5110103;28;20081;-47
2023/04/12 07:29:24;;;;;;;12.75;3.35;;;;;;;16.15;48.58;97943.22;5109538;28;20059;-47
2023/04/12 07:31:50;;;;;;;9.23;2.58;;;;;;;16.22;47.97;97932.41;5093937;28;20024;-47
2023/04/12 07:34:15;;;;;;;8.15;2.13;;;;;;;16.31;47.70;97950.22;5093928;28;20066;-46
2023/04/12 07:36:43;;;;;;;16.98;3.30;;;;;;;16.42;47.36;97944.97;5109508;28;20410;-47
2023/04/12 07:39:11;;;;;;;31.23;4.68;;;;;;;16.45;47.51;97947.91;5093776;28;20036;-47
2023/04/12 07:41:37;;;;;;;20.30;3.78;;;;;;;16.39;48.06;97943.66;5093833;28;20444;-47
2023/04/12 07:44:03;;;;;;;16.80;3.72;;;;;;;16.45;48.96;97942.63;5092538;28;20024;-46
2023/04/12 07:46:29;;;;;;;14.38;3.25;;;;;;;16.53;48.53;97936.84;5109397;28;20024;-47
2023/04/12 07:48:55;;;;;;;14.27;3.05;;;;;;;16.55;47.39;97928.63;5109342;28;20031;-47
2023/04/12 07:51:21;;;;;;;11.82;2.95;;;;;;;16.57;46.94;97921.22;5109353;28;20039;-47
2023/04/12 07:53:47;;;;;;;6.82;2.50;;;;;;;16.57;46.24;97927.31;5093571;28;20486;-46
2023/04/12 07:56:14;;;;;;;19.00;2.95;;;;;;;16.61;47.18;97938.19;5093391;28;20042;-46
2023/04/12 07:58:39;;;;;;;31.92;4.38;;;;;;;16.70;47.64;97941.16;5092180;28;20436;-47
2023/04/12 08:01:06;;;;;;;20.02;4.22;;;;;;;16.74;47.43;97937.75;5109087;28;20020;-46
2023/04/12 08:03:32;;;;;;;20.48;4.30;;;;;;;16.70;47.82;97943.78;5093341;28;20032;-46
2023/04/12 08:05:58;;;;;;;14.77;2.25;;;;;;;16.78;47.22;97935.34;5092016;28;20394;-46
2023/04/12 08:08:23;;;;;;;17.98;3.10;;;;;;;16.87;47.27;97938.34;5093282;28;20032;-46
2023/04/12 08:10:51;;;;;;;24.10;3.38;;;;;;;16.92;47.59;97928.56;5091865;28;20057;-47
2023/04/12 08:13:17;;;;;;;13.30;2.95;;;;;;;16.84;47.03;97923.78;5108927;28;20050;-47
2023/04/12 08:15:42;;;;;;;16.52;3.70;;;;;;;16.87;47.47;97933.03;5093040;28;20035;-46
2023/04/12 08:18:11;;;;;;;17.52;2.60;;;;;;;17.09;47.01;97935.50;5074935;28;20020;-47
2023/04/12 08:20:39;;;;;;;15.70;2.90;;;;;;;17.09;47.33;97932.84;5093080;28;20032;-47
2023/04/12 08:23:05;;;;;;;16.48;3.28;;;;;;;17.24;46.73;97937.38;5108718;28;20032;-47
2023/04/12 08:25:31;;;;;;;8.13;1.85;;;;;;;17.46;46.17;97926.56;5092935;28;20024;-47
2023/04/12 08:27:57;;;;;;;9.05;2.20;;;;;;;17.48;44.82;97916.47;5092922;28;20039;-47
2023/04/12 08:30:25;;;;;;;9.73;2.65;;;;;;;17.57;44.84;97920.22;5092730;28;20139;-47
2023/04/12 08:32:52;;;;;;;8.98;1.60;;;;;;;17.65;44.04;97914.38;5092843;28;20403;-46
2023/04/12 08:35:18;;;;;;;10.10;2.13;;;;;;;17.70;43.49;97917.00;5092713;28;20077;-47
2023/04/12 08:37:44;;;;;;;6.70;2.28;;;;;;;17.69;43.87;97917.28;5074487;28;20024;-47
2023/04/12 08:40:10;;;;;;;7.32;2.00;;;;;;;17.70;43.69;97916.22;5091467;28;20028;-47
2023/04/12 08:42:37;;;;;;;14.10;3.17;;;;;;;17.73;44.28;97921.00;5108418;28;20444;-46
2023/04/12 08:45:10;;;;;;;7.57;2.75;;;;;;;17.71;45.56;97921.28;5092590;28;20031;-47
2023/04/12 08:47:41;;;;;;;11.15;2.75;;;;;;;17.67;46.08;97914.91;5092911;28;20065;-46
2023/04/12 08:50:12;;;;;;;16.17;4.53;;;;;;;17.70;46.53;97908.25;5092590;28;20028;-46
2023/04/12 08:52:37;;;;;;;14.30;3.25;;;;;;;17.74;46.31;97906.66;5093100;28;20028;-46
2023/04/12 08:55:04;;;;;;;15.95;4.50;;;;;;;17.59;46.22;97907.47;5092019;28;20428;-47
2023/04/12 08:57:34;;;;;;;14.23;3.75;;;;;;;17.61;46.39;97900.03;5092339;28;20028;-47
2023/04/12 09:00:00;;;;;;;21.63;3.20;;;;;;;17.83;45.90;97889.19;5092268;28;20036;-47
2023/04/12 09:02:27;;;;;;;8.32;3.08;;;;;;;18.00;45.41;97880.91;5108064;28;20067;-47
2023/04/12 09:04:55;;;;;;;21.17;3.30;;;;;;;18.07;44.84;97870.84;5092298;28;20101;-47
2023/04/12 09:07:22;;;;;;;13.57;2.40;;;;;;;18.13;43.89;97877.72;5092211;28;20020;-47
2023/04/12 09:09:49;;;;;;;8.38;2.25;;;;;;;18.40;43.45;97871.25;5092133;28;20028;-47
2023/04/12 09:12:17;;;;;;;11.55;2.03;;;;;;;18.72;41.51;97878.06;5107834;28;20024;-47
2023/04/12 09:14:43;;;;;;;8.02;2.85;;;;;;;18.85;41.29;97879.34;5107743;28;20043;-47
2023/04/12 09:17:23;;;;;;;9.80;2.63;;;;;;;18.99;40.88;97888.28;5107675;28;20102;-47
2023/04/12 09:19:49;;;;;;;8.23;2.00;;;;;;;19.19;40.49;97882.06;5092048;28;20420;-47
2023/04/12 09:22:15;;;;;;;15.68;2.70;;;;;;;19.51;40.24;97878.13;5092045;28;20024;-47
2023/04/12 09:24:49;;;;;;;19.92;2.60;;;;;;;19.72;39.38;97862.81;5073922;28;20452;-47
2023/04/12 09:27:15;;;;;;;27.88;3.55;;;;;;;19.81;38.83;97866.44;5092023;28;20099;-44
2023/04/12 09:29:41;;;;;;;13.43;2.90;;;;;;;19.86;38.97;97860.25;5091797;28;20048;-44
2023/04/12 09:32:08;;;;;;;23.17;3.17;;;;;;;19.72;39.99;97850.28;5090770;28;20031;-44
2023/04/12 09:34:35;;;;;;;31.30;4.55;;;;;;;19.46;40.96;97846.25;5107601;28;20040;-44
2023/04/12 09:37:15;;;;;;;12.88;2.53;;;;;;;19.44;40.24;97853.69;5091727;28;20024;-45
2023/04/12 09:39:41;;;;;;;19.85;2.88;;;;;;;19.48;39.99;97841.44;5091856;28;20103;-44
2023/04/12 09:42:09;;;;;;;11.18;2.53;;;;;;;19.53;39.50;97844.03;5091808;28;20023;-44
2023/04/12 09:44:35;;;;;;;12.98;2.78;;;;;;;19.68;38.99;97830.59;5091803;28;20108;-45
2023/04/12 09:47:01;;;;;;;15.82;2.92;;;;;;;19.92;39.15;97835.16;5091786;28;20127;-45
2023/04/12 09:49:41;;;;;;;12.48;2.45;;;;;;;20.18;38.30;97826.91;5107419;28;20032;-44
2023/04/12 09:52:10;;;;;;;17.23;3.15;;;;;;;20.35;38.59;97827.25;5091800;28;20028;-45
2023/04/12 09:54:49;;;;;;;13.70;2.33;;;;;;;20.45;37.30;97827.13;5107399;28;20032;-45
2023/04/12 09:57:20;;;;;;;14.50;2.83;;;;;;;20.54;37.22;97828.09;5091636;28;20036;-44
2023/04/12 09:59:51;;;;;;;14.70;2.65;;;;;;;20.55;37.08;97831.53;5091976;28;20031;-44
2023/04/12 10:02:18;;;;;;;15.93;2.85;;;;;;;20.57;37.53;97832.03;5091743;28;20447;-45
2023/04/12 10:04:47;;;;;;;15.07;3.10;;;;;;;20.54;37.59;97836.09;5107432;28;20031;-44
2023/04/12 10:07:13;;;;;;;11.35;2.03;;;;;;;20.53;36.35;97837.16;5111388;28;20016;-44
2023/04/12 10:09:40;;;;;;;13.60;1.95;;;;;;;20.39;36.38;97825.59;5111270;28;20066;-44
2023/04/12 10:12:07;;;;;;;14.10;2.47;;;;;;;20.38;36.33;97821.34;5095794;28;20024;-44
2023/04/12 10:14:34;;;;;;;4.90;1.52;;;;;;;20.37;35.35;97825.09;5095570;28;20020;-45
2023/04/12 10:17:02;;;;;;;7.53;1.95;;;;;;;20.17;35.77;97817.34;5095372;28;20109;-44
2023/04/12 10:19:30;;;;;;;6.05;1.70;;;;;;;19.99;35.87;97822.31;5111088;28;20145;-44
2023/04/12 10:21:57;;;;;;;10.60;2.20;;;;;;;19.84;36.55;97812.63;5095313;28;20024;-45
2023/04/12 10:24:24;;;;;;;9.95;2.08;;;;;;;19.84;36.73;97806.50;5095362;28;20059;-44
2023/04/12 10:26:54;;;;;;;4.68;1.92;;;;;;;19.87;36.29;97796.06;5095246;28;20103;-44
2023/04/12 10:29:37;;;;;;;8.80;1.50;;;;;;;19.85;36.43;97797.44;5095043;28;20267;-45
2023/04/12 10:32:22;;;;;;;3.65;1.60;;;;;;;19.72;36.77;97794.38;5095243;28;20032;-44
2023/04/12 10:34:54;;;;;;;5.85;2.25;;;;;;;19.66;36.73;97795.47;5111146;28;20139;-44
2023/04/12 10:37:21;;;;;;;9.98;2.40;;;;;;;19.54;37.37;97784.41;5094961;28;20489;-45
2023/04/12 10:39:54;;;;;;;7.90;2.30;;;;;;;19.55;37.35;97773.47;5110741;28;20059;-45
2023/04/12 10:42:27;;;;;;;4.95;1.58;;;;;;;19.65;37.23;97767.25;5094999;28;20028;-44
2023/04/12 10:44:56;;;;;;;9.48;2.15;;;;;;;19.74;36.95;97765.59;5093722;28;20035;-44
2023/04/12 10:47:57;;;;;;;5.60;2.08;;;;;;;19.74;37.05;97749.63;5110648;28;20023;-44
2023/04/12 10:50:31;;;;;;;5.85;1.88;;;;;;;19.91;36.99;97753.72;5110581;28;20111;-45
2023/04/12 10:53:11;;;;;;;8.60;2.10;;;;;;;20.15;36.82;97757.13;5094848;28;20046;-45
2023/04/12 10:55:43;;;;;;;6.70;2.20;;;;;;;20.19;36.81;97748.59;5094645;28;20031;-45
2023/04/12 10:58:09;;;;;;;5.03;2.10;;;;;;;20.26;36.71;97746.34;5094717;28;20136;-45
2023/04/12 11:00:57;;;;;;;19.48;3.50;;;;;;;20.31;36.81;97732.97;5110308;28;20031;-44
2023/04/12 11:03:27;;;;;;;1405.45;137.65;;;;;;;20.39;37.01;97721.66;5094577;28;20421;-44
2023/04/12 11:06:00;;;;;;;243.30;20.20;;;;;;;20.61;36.78;97717.66;5094430;28;20493;-45
2023/04/12 11:08:30;;;;;;;156.23;13.25;;;;;;;20.75;36.21;97707.84;5093610;28;20061;-44
2023/04/12 11:11:03;;;;;;;76.20;6.57;;;;;;;20.83;36.26;97711.72;5076262;28;20028;-45
2023/04/12 11:13:37;;;;;;;29.08;4.53;;;;;;;20.92;36.03;97694.75;5093158;28;20417;-44
2023/04/12 11:16:05;;;;;;;16.60;3.20;;;;;;;21.03;35.52;97702.59;5094330;28;20397;-45
2023/04/12 11:18:34;;;;;;;22.90;4.90;;;;;;;20.94;35.80;97711.25;5093635;28;20266;-44
2023/04/12 11:21:01;;;;;;;5.55;2.35;;;;;;;20.99;35.42;97706.91;5094152;28;20024;-44
2023/04/12 11:23:28;;;;;;;10.13;2.25;;;;;;;20.91;34.88;97711.06;5109933;28;20035;-44
2023/04/12 11:25:54;;;;;;;13.73;2.72;;;;;;;20.77;35.12;97716.34;5109801;28;20052;-44
2023/04/12 11:28:21;;;;;;;9.52;2.10;;;;;;;20.72;35.44;97722.53;5109827;28;20114;-45
2023/04/12 11:30:52;;;;;;;9.43;2.00;;;;;;;20.57;35.33;97711.28;5094316;28;20115;-45
2023/04/12 11:33:35;;;;;;;7.72;2.30;;;;;;;20.42;35.92;97714.97;5094040;28;20508;-45